sensor_id;sensor_type;location;lat;lon;timestamp;pressure;altitude;pressure_sealevel;temperature;humidity
76052;BME280;64751;48.708;9.710;2023-09-19T14:32:44;97493.97;;;20.37;55.41
76052;BME280;64751;48.708;9.710;2023-09-19T14:35:12;97495.97;;;20.40;56.70
76052;BME280;64751;48.708;9.710;2023-09-19T14:37:40;97494.84;;;20.41;56.35
76052;BME280;64751;48.708;9.710;2023-09-19T14:40:09;97491.25;;;20.49;55.19
76052;BME280;64751;48.708;9.710;2023-09-19T14:42:39;97490.56;;;20.52;55.82
76052;BME280;64751;48.708;9.710;2023-09-19T14:45:08;97482.63;;;20.55;54.37
76052;BME280;64751;48.708;9.710;2023-09-19T14:47:35;97483.13;;;20.61;55.39
76052;BME280;64751;48.708;9.710;2023-09-19T14:50:06;97474.41;;;20.64;56.13
76052;BME280;64751;48.708;9.710;2023-09-19T14:52:34;97494.41;;;20.66;54.56
76052;BME280;64751;48.708;9.710;2023-09-19T14:55:03;97478.63;;;20.65;54.95
76052;BME280;64751;48.708;9.710;2023-09-19T14:57:33;97478.63;;;20.65;54.06
76052;BME280;64751;48.708;9.710;2023-09-19T15:00:00;97474.06;;;20.65;54.07
76052;BME280;64751;48.708;9.710;2023-09-19T15:02:31;97478.75;;;20.68;53.44
76052;BME280;64751;48.708;9.710;2023-09-19T15:05:00;97477.53;;;20.66;53.39
76052;BME280;64751;48.708;9.710;2023-09-19T15:07:29;97467.59;;;20.66;52.99
76052;BME280;64751;48.708;9.710;2023-09-19T15:09:59;97476.06;;;20.68;53.21
76052;BME280;64751;48.708;9.710;2023-09-19T15:12:30;97468.81;;;20.69;53.17
76052;BME280;64751;48.708;9.710;2023-09-19T15:14:58;97471.91;;;20.71;52.91
76052;BME280;64751;48.708;9.710;2023-09-19T15:17:27;97465.09;;;20.73;52.85
76052;BME280;64751;48.708;9.710;2023-09-19T15:19:54;97470.88;;;20.75;53.47
76052;BME280;64751;48.708;9.710;2023-09-19T15:22:25;97464.72;;;20.75;53.16
76052;BME280;64751;48.708;9.710;2023-09-19T15:24:54;97460.59;;;20.77;54.15
76052;BME280;64751;48.708;9.710;2023-09-19T15:27:23;97463.78;;;20.83;53.34
76052;BME280;64751;48.708;9.710;2023-09-19T15:29:52;97457.56;;;20.79;53.84
76052;BME280;64751;48.708;9.710;2023-09-19T15:32:19;97452.19;;;20.79;52.83
76052;BME280;64751;48.708;9.710;2023-09-19T15:34:47;97456.31;;;20.76;53.29
76052;BME280;64751;48.708;9.710;2023-09-19T15:37:15;97459.63;;;20.70;51.93
76052;BME280;64751;48.708;9.710;2023-09-19T15:39:42;97457.94;;;20.65;52.17
76052;BME280;64751;48.708;9.710;2023-09-19T15:42:12;97454.41;;;20.61;52.38
76052;BME280;64751;48.708;9.710;2023-09-19T15:44:42;97458.53;;;20.59;52.72
76052;BME280;64751;48.708;9.710;2023-09-19T15:47:10;97460.00;;;20.56;52.71
76052;BME280;64751;48.708;9.710;2023-09-19T15:49:39;97459.13;;;20.52;52.92
76052;BME280;64751;48.708;9.710;2023-09-19T15:52:07;97459.94;;;20.53;53.08
76052;BME280;64751;48.708;9.710;2023-09-19T15:54:35;97457.13;;;20.49;52.61
76052;BME280;64751;48.708;9.710;2023-09-19T15:57:08;97466.31;;;20.48;53.25
76052;BME280;64751;48.708;9.710;2023-09-19T15:59:40;97462.75;;;20.44;54.25
76052;BME280;64751;48.708;9.710;2023-09-19T16:02:08;97464.53;;;20.40;53.88
76052;BME280;64751;48.708;9.710;2023-09-19T16:04:35;97457.19;;;20.37;52.33
76052;BME280;64751;48.708;9.710;2023-09-19T16:07:04;97462.56;;;20.37;52.09
76052;BME280;64751;48.708;9.710;2023-09-19T16:09:33;97467.81;;;20.34;52.72
76052;BME280;64751;48.708;9.710;2023-09-19T16:12:02;97469.75;;;20.33;52.99
76052;BME280;64751;48.708;9.710;2023-09-19T16:14:29;97468.50;;;20.31;52.05
76052;BME280;64751;48.708;9.710;2023-09-19T16:16:58;97469.97;;;20.28;52.57
76052;BME280;64751;48.708;9.710;2023-09-19T16:19:28;97465.72;;;20.27;52.13
76052;BME280;64751;48.708;9.710;2023-09-19T16:21:56;97464.94;;;20.27;51.99
76052;BME280;64751;48.708;9.710;2023-09-19T16:24:23;97472.09;;;20.22;52.27
76052;BME280;64751;48.708;9.710;2023-09-19T16:26:51;97465.03;;;20.18;52.19
76052;BME280;64751;48.708;9.710;2023-09-19T16:29:19;97465.03;;;20.18;52.32
76052;BME280;64751;48.708;9.710;2023-09-19T16:31:50;97454.09;;;20.11;51.84
76052;BME280;64751;48.708;9.710;2023-09-19T16:34:19;97461.41;;;20.10;52.28
76052;BME280;64751;48.708;9.710;2023-09-19T16:36:47;97466.97;;;20.05;52.59
76052;BME280;64751;48.708;9.710;2023-09-19T16:39:15;97454.59;;;20.01;52.55
76052;BME280;64751;48.708;9.710;2023-09-19T16:41:43;97451.34;;;19.95;52.59
76052;BME280;64751;48.708;9.710;2023-09-19T16:44:10;97456.72;;;19.95;52.53
76052;BME280;64751;48.708;9.710;2023-09-19T16:46:38;97451.25;;;19.92;52.42
76052;BME280;64751;48.708;9.710;2023-09-19T16:49:06;97448.50;;;19.88;52.01
76052;BME280;64751;48.708;9.710;2023-09-19T16:51:35;97443.34;;;19.83;51.89
76052;BME280;64751;48.708;9.710;2023-09-19T16:54:04;97443.34;;;19.83;52.10
76052;BME280;64751;48.708;9.710;2023-09-19T16:56:32;97448.59;;;19.80;52.84
76052;BME280;64751;48.708;9.710;2023-09-19T16:59:03;97449.94;;;19.74;52.10
76052;BME280;64751;48.708;9.710;2023-09-19T17:01:32;97442.91;;;19.69;52.64
76052;BME280;64751;48.708;9.710;2023-09-19T17:03:59;97451.97;;;19.65;53.12
76052;BME280;64751;48.708;9.710;2023-09-19T17:06:28;97445.72;;;19.61;53.40
76052;BME280;64751;48.708;9.710;2023-09-19T17:08:57;97441.38;;;19.56;54.54
76052;BME280;64751;48.708;9.710;2023-09-19T17:11:25;97444.63;;;19.49;56.46
76052;BME280;64751;48.708;9.710;2023-09-19T17:13:53;97445.19;;;19.43;56.75
76052;BME280;64751;48.708;9.710;2023-09-19T17:16:20;97445.75;;;19.36;58.86
76052;BME280;64751;48.708;9.710;2023-09-19T17:18:50;97454.63;;;19.28;60.03
76052;BME280;64751;48.708;9.710;2023-09-19T17:21:17;97455.09;;;19.18;60.53
76052;BME280;64751;48.708;9.710;2023-09-19T17:23:45;97454.72;;;19.08;60.85
76052;BME280;64751;48.708;9.710;2023-09-19T17:26:14;97465.25;;;19.49;97.28
76052;BME280;64751;48.708;9.710;2023-09-19T17:28:44;97467.25;;;19.64;100.00
76052;BME280;64751;48.708;9.710;2023-09-19T17:31:12;97467.03;;;19.69;100.00
76052;BME280;64751;48.708;9.710;2023-09-19T17:33:41;97469.41;;;19.59;88.89
76052;BME280;64751;48.708;9.710;2023-09-19T17:36:11;97472.75;;;19.56;100.00
76052;BME280;64751;48.708;9.710;2023-09-19T17:38:40;97477.41;;;19.71;100.00
76052;BME280;64751;48.708;9.710;2023-09-19T17:41:08;97476.00;;;19.61;100.00
76052;BME280;64751;48.708;9.710;2023-09-19T17:43:37;97485.34;;;19.55;100.00
76052;BME280;64751;48.708;9.710;2023-09-19T17:46:07;97480.56;;;19.36;96.24
76052;BME280;64751;48.708;9.710;2023-09-19T17:48:36;97482.81;;;19.02;78.27
76052;BME280;64751;48.708;9.710;2023-09-19T17:51:04;97487.53;;;18.72;83.17
76052;BME280;64751;48.708;9.710;2023-09-19T17:53:33;97492.19;;;18.63;79.73
76052;BME280;64751;48.708;9.710;2023-09-19T17:56:01;97486.06;;;18.42;80.47
76052;BME280;64751;48.708;9.710;2023-09-19T17:58:29;97485.69;;;18.31;80.89
76052;BME280;64751;48.708;9.710;2023-09-19T18:01:08;97487.66;;;18.22;74.52
76052;BME280;64751;48.708;9.710;2023-09-19T18:03:36;97490.69;;;18.12;75.30
76052;BME280;64751;48.708;9.710;2023-09-19T18:06:05;97489.06;;;17.99;79.96
76052;BME280;64751;48.708;9.710;2023-09-19T18:08:32;97489.44;;;17.89;75.61
76052;BME280;64751;48.708;9.710;2023-09-19T18:11:00;97493.75;;;17.81;82.21
76052;BME280;64751;48.708;9.710;2023-09-19T18:13:27;97503.81;;;17.76;79.90
76052;BME280;64751;48.708;9.710;2023-09-19T18:15:56;97499.44;;;17.71;76.52
76052;BME280;64751;48.708;9.710;2023-09-19T18:18:25;97496.97;;;17.66;77.30
76052;BME280;64751;48.708;9.710;2023-09-19T18:20:53;97497.94;;;17.62;77.76
76052;BME280;64751;48.708;9.710;2023-09-19T18:23:21;97498.44;;;17.55;82.84
76052;BME280;64751;48.708;9.710;2023-09-19T18:25:49;97502.69;;;17.48;77.64
76052;BME280;64751;48.708;9.710;2023-09-19T18:28:19;97510.06;;;17.42;77.99
76052;BME280;64751;48.708;9.710;2023-09-19T18:30:47;97498.63;;;17.42;82.01
76052;BME280;64751;48.708;9.710;2023-09-19T18:33:15;97504.06;;;17.16;76.93
76052;BME280;64751;48.708;9.710;2023-09-19T18:35:44;97499.53;;;16.99;76.58
76052;BME280;64751;48.708;9.710;2023-09-19T18:38:11;97501.00;;;16.88;77.00
76052;BME280;64751;48.708;9.710;2023-09-19T18:40:42;97505.09;;;16.77;77.71
76052;BME280;64751;48.708;9.710;2023-09-19T18:43:10;97511.84;;;16.66;77.34
76052;BME280;64751;48.708;9.710;2023-09-19T18:45:38;97507.66;;;16.56;77.62
76052;BME280;64751;48.708;9.710;2023-09-19T18:48:07;97512.16;;;16.47;77.20
76052;BME280;64751;48.708;9.710;2023-09-19T18:50:35;97512.94;;;16.39;77.18
76052;BME280;64751;48.708;9.710;2023-09-19T18:53:04;97514.19;;;16.33;77.63
76052;BME280;64751;48.708;9.710;2023-09-19T18:55:32;97525.34;;;16.27;77.44
76052;BME280;64751;48.708;9.710;2023-09-19T18:57:59;97522.66;;;16.18;77.85
76052;BME280;64751;48.708;9.710;2023-09-19T19:00:27;97520.75;;;16.10;78.68
76052;BME280;64751;48.708;9.710;2023-09-19T19:02:54;97524.34;;;16.06;78.44
76052;BME280;64751;48.708;9.710;2023-09-19T19:05:22;97532.22;;;16.02;79.15
76052;BME280;64751;48.708;9.710;2023-09-19T19:07:50;97523.28;;;15.98;78.61
76052;BME280;64751;48.708;9.710;2023-09-19T19:10:19;97521.81;;;15.92;78.66
76052;BME280;64751;48.708;9.710;2023-09-19T19:12:47;97529.34;;;15.90;78.69
76052;BME280;64751;48.708;9.710;2023-09-19T19:15:15;97529.50;;;15.85;79.09
76052;BME280;64751;48.708;9.710;2023-09-19T19:17:42;97533.72;;;15.86;78.95
76052;BME280;64751;48.708;9.710;2023-09-19T19:20:11;97538.59;;;15.84;79.23
76052;BME280;64751;48.708;9.710;2023-09-19T19:22:40;97539.34;;;15.76;79.31
76052;BME280;64751;48.708;9.710;2023-09-19T19:25:08;97545.59;;;15.71;78.92
76052;BME280;64751;48.708;9.710;2023-09-19T19:27:38;97549.19;;;15.67;79.11
76052;BME280;64751;48.708;9.710;2023-09-19T19:30:06;97544.81;;;15.62;78.90
76052;BME280;64751;48.708;9.710;2023-09-19T19:32:36;97541.34;;;15.62;78.76
76052;BME280;64751;48.708;9.710;2023-09-19T19:35:04;97544.75;;;15.54;79.79
76052;BME280;64751;48.708;9.710;2023-09-19T19:37:33;97542.72;;;15.51;79.18
76052;BME280;64751;48.708;9.710;2023-09-19T19:40:01;97551.47;;;15.51;79.16
76052;BME280;64751;48.708;9.710;2023-09-19T19:42:29;97547.09;;;15.47;79.16
76052;BME280;64751;48.708;9.710;2023-09-19T19:44:58;97555.69;;;15.44;79.33
76052;BME280;64751;48.708;9.710;2023-09-19T19:47:26;97551.63;;;15.46;79.07
76052;BME280;64751;48.708;9.710;2023-09-19T19:49:54;97542.16;;;15.40;79.21
76052;BME280;64751;48.708;9.710;2023-09-19T19:52:25;97554.03;;;15.34;79.32
76052;BME280;64751;48.708;9.710;2023-09-19T19:54:53;97554.63;;;15.31;79.43
76052;BME280;64751;48.708;9.710;2023-09-19T19:57:21;97565.59;;;15.30;79.23
76052;BME280;64751;48.708;9.710;2023-09-19T19:59:48;97559.00;;;15.27;79.17
76052;BME280;64751;48.708;9.710;2023-09-19T20:02:21;97550.38;;;15.21;79.57
76052;BME280;64751;48.708;9.710;2023-09-19T20:04:49;97559.75;;;15.19;79.13
76052;BME280;64751;48.708;9.710;2023-09-19T20:07:16;97539.94;;;15.03;79.09
76052;BME280;64751;48.708;9.710;2023-09-19T20:09:45;97561.25;;;15.11;79.38
76052;BME280;64751;48.708;9.710;2023-09-19T20:12:12;97561.38;;;15.06;79.64
76052;BME280;64751;48.708;9.710;2023-09-19T20:14:40;97570.63;;;15.09;79.22
76052;BME280;64751;48.708;9.710;2023-09-19T20:17:07;97563.63;;;15.13;79.74
76052;BME280;64751;48.708;9.710;2023-09-19T20:19:38;97567.84;;;15.14;80.18
76052;BME280;64751;48.708;9.710;2023-09-19T20:22:06;97572.03;;;15.06;79.62
76052;BME280;64751;48.708;9.710;2023-09-19T20:24:37;97573.06;;;14.97;79.17
76052;BME280;64751;48.708;9.710;2023-09-19T20:27:04;97571.91;;;14.89;79.22
76052;BME280;64751;48.708;9.710;2023-09-19T20:29:33;97571.44;;;14.87;79.44
76052;BME280;64751;48.708;9.710;2023-09-19T20:32:04;97571.88;;;14.81;80.25
76052;BME280;64751;48.708;9.710;2023-09-19T20:34:33;97568.34;;;14.72;79.97
76052;BME280;64751;48.708;9.710;2023-09-19T20:37:02;97573.38;;;14.73;80.05
76052;BME280;64751;48.708;9.710;2023-09-19T20:39:31;97572.41;;;14.69;79.75
76052;BME280;64751;48.708;9.710;2023-09-19T20:41:59;97565.22;;;14.70;79.87
76052;BME280;64751;48.708;9.710;2023-09-19T20:44:27;97567.88;;;14.70;78.97
76052;BME280;64751;48.708;9.710;2023-09-19T20:46:56;97566.44;;;14.64;78.63
76052;BME280;64751;48.708;9.710;2023-09-19T20:49:24;97572.81;;;14.63;78.72
76052;BME280;64751;48.708;9.710;2023-09-19T20:51:51;97573.91;;;14.62;78.85
76052;BME280;64751;48.708;9.710;2023-09-19T20:54:20;97580.31;;;14.61;79.49
76052;BME280;64751;48.708;9.710;2023-09-19T20:56:48;97579.72;;;14.64;78.58
76052;BME280;64751;48.708;9.710;2023-09-19T20:59:18;97587.06;;;14.67;78.79
76052;BME280;64751;48.708;9.710;2023-09-19T21:01:45;97583.94;;;14.65;78.82
76052;BME280;64751;48.708;9.710;2023-09-19T21:04:13;97583.94;;;14.65;79.08
76052;BME280;64751;48.708;9.710;2023-09-19T21:06:41;97584.25;;;14.63;79.66
76052;BME280;64751;48.708;9.710;2023-09-19T21:09:08;97587.19;;;14.62;79.49
76052;BME280;64751;48.708;9.710;2023-09-19T21:11:37;97582.28;;;14.55;78.58
76052;BME280;64751;48.708;9.710;2023-09-19T21:14:05;97581.31;;;14.51;79.07
76052;BME280;64751;48.708;9.710;2023-09-19T21:16:33;97580.34;;;14.47;79.27
76052;BME280;64751;48.708;9.710;2023-09-19T21:19:00;97584.22;;;14.41;80.03
76052;BME280;64751;48.708;9.710;2023-09-19T21:21:30;97584.72;;;14.43;80.00
76052;BME280;64751;48.708;9.710;2023-09-19T21:24:00;97572.50;;;14.42;78.78
76052;BME280;64751;48.708;9.710;2023-09-19T21:26:28;97575.47;;;14.40;79.04
76052;BME280;64751;48.708;9.710;2023-09-19T21:28:57;97573.38;;;14.37;78.62
76052;BME280;64751;48.708;9.710;2023-09-19T21:31:25;97578.22;;;14.35;78.73
76052;BME280;64751;48.708;9.710;2023-09-19T21:33:52;97579.81;;;14.36;78.10
76052;BME280;64751;48.708;9.710;2023-09-19T21:36:20;97572.91;;;14.35;77.86
76052;BME280;64751;48.708;9.710;2023-09-19T21:38:50;97579.31;;;14.34;77.49
76052;BME280;64751;48.708;9.710;2023-09-19T21:41:18;97581.66;;;14.36;77.45
76052;BME280;64751;48.708;9.710;2023-09-19T21:43:46;97582.56;;;14.31;77.62
76052;BME280;64751;48.708;9.710;2023-09-19T21:46:17;97584.31;;;14.22;77.91
76052;BME280;64751;48.708;9.710;2023-09-19T21:48:45;97580.63;;;14.10;78.54
76052;BME280;64751;48.708;9.710;2023-09-19T21:51:14;97582.56;;;14.04;79.99
76052;BME280;64751;48.708;9.710;2023-09-19T21:53:43;97585.63;;;13.98;80.07
76052;BME280;64751;48.708;9.710;2023-09-19T21:56:10;97585.81;;;14.01;79.80
76052;BME280;64751;48.708;9.710;2023-09-19T21:58:41;97577.34;;;13.99;79.75
